createdAt,value
2017-01-14T01:01:10.909Z,992.71
2017-01-14T01:02:10.595Z,992.71
2017-01-14T01:03:10.534Z,992.68
2017-01-14T01:04:10.469Z,992.72
2017-01-14T01:05:10.409Z,992.72
2017-01-14T01:06:10.347Z,992.7
2017-01-14T01:07:10.284Z,992.7
2017-01-14T01:08:10.224Z,992.7
2017-01-14T01:09:10.160Z,992.7
2017-01-14T01:10:10.098Z,992.69
2017-01-14T01:11:10.035Z,992.68
2017-01-14T01:12:09.974Z,992.67
2017-01-14T01:13:09.912Z,992.68
2017-01-14T01:14:09.851Z,992.67
2017-01-14T01:15:09.789Z,992.63
2017-01-14T01:16:09.725Z,992.68
2017-01-14T01:17:09.665Z,992.64
2017-01-14T01:18:09.603Z,992.62
2017-01-14T01:19:09.549Z,992.64
2017-01-14T01:20:09.479Z,992.61
2017-01-14T01:21:09.416Z,992.63
2017-01-14T01:22:09.353Z,992.59
2017-01-14T01:23:09.292Z,992.58
2017-01-14T01:24:09.230Z,992.59
2017-01-14T01:25:09.168Z,992.59
2017-01-14T01:26:09.107Z,992.57
2017-01-14T01:27:09.044Z,992.6
2017-01-14T01:28:08.982Z,992.62
2017-01-14T01:29:08.920Z,992.61
2017-01-14T01:30:08.867Z,992.62
2017-01-14T01:31:08.795Z,992.64
2017-01-14T01:32:08.734Z,992.63
2017-01-14T01:33:08.671Z,992.61
2017-01-14T01:34:08.612Z,992.62
2017-01-14T01:35:08.548Z,992.62
2017-01-14T01:36:08.486Z,992.6
2017-01-14T01:37:08.423Z,992.58
2017-01-14T01:38:08.362Z,992.61
2017-01-14T01:39:08.308Z,992.56
2017-01-14T01:40:08.239Z,992.53
2017-01-14T01:41:08.176Z,992.54
2017-01-14T01:42:08.114Z,992.52
2017-01-14T01:43:08.052Z,992.58
2017-01-14T01:44:07.990Z,992.56
2017-01-14T01:45:07.927Z,992.57
2017-01-14T01:46:07.867Z,992.5
2017-01-14T01:47:07.804Z,992.47
2017-01-14T01:48:07.743Z,992.49
2017-01-14T01:49:07.679Z,992.49
2017-01-14T01:50:07.618Z,992.45
2017-01-14T01:51:07.557Z,992.45
2017-01-14T01:52:07.493Z,992.41
2017-01-14T01:53:07.433Z,992.43
2017-01-14T01:54:07.372Z,992.38
2017-01-14T01:55:07.307Z,992.38
2017-01-14T01:56:07.246Z,992.42
2017-01-14T01:57:07.184Z,992.39
2017-01-14T01:58:07.123Z,992.37
2017-01-14T01:59:07.060Z,992.35
2017-01-14T02:00:06.998Z,992.31
2017-01-14T02:01:06.936Z,992.31
2017-01-14T02:02:06.875Z,992.24
2017-01-14T02:03:06.812Z,992.23
2017-01-14T02:04:06.750Z,992.26
2017-01-14T02:05:06.688Z,992.24
2017-01-14T02:06:06.626Z,992.21
2017-01-14T02:07:06.564Z,992.22
2017-01-14T02:08:06.502Z,992.19
2017-01-14T02:09:06.440Z,992.17
2017-01-14T02:10:06.378Z,992.17
2017-01-14T02:11:06.316Z,992.17
2017-01-14T02:12:06.254Z,992.1
2017-01-14T02:13:06.195Z,992.13
2017-01-14T02:14:06.130Z,992.08
2017-01-14T02:15:06.068Z,992.1
2017-01-14T02:16:06.007Z,992.11
2017-01-14T02:17:05.944Z,992.07
2017-01-14T02:18:05.883Z,992.07
2017-01-14T02:19:05.822Z,992.05
2017-01-14T02:20:05.759Z,992.05
2017-01-14T02:21:05.696Z,992.03
2017-01-14T02:22:05.635Z,992.03
2017-01-14T02:23:05.572Z,992.01
2017-01-14T02:24:05.511Z,992
2017-01-14T02:25:05.448Z,992
2017-01-14T02:26:05.386Z,992.02
2017-01-14T02:27:05.325Z,991.99
2017-01-14T02:28:05.263Z,992
2017-01-14T02:29:05.201Z,992.03
2017-01-14T02:30:05.139Z,992.06
2017-01-14T02:31:05.077Z,992.02
2017-01-14T02:32:05.014Z,992.04
2017-01-14T02:33:04.952Z,992.01
2017-01-14T02:34:04.892Z,992
2017-01-14T02:35:04.829Z,991.99
2017-01-14T02:36:04.767Z,991.97
2017-01-14T02:37:04.706Z,991.98
2017-01-14T02:38:04.644Z,991.99
2017-01-14T02:39:04.581Z,991.97
2017-01-14T02:40:04.520Z,991.99
2017-01-14T02:41:04.458Z,991.95
2017-01-14T02:42:04.396Z,991.97
2017-01-14T02:43:04.333Z,991.94
2017-01-14T02:44:04.271Z,991.96
2017-01-14T02:45:04.211Z,991.98
2017-01-14T02:46:04.147Z,991.93
2017-01-14T02:47:04.085Z,991.96
2017-01-14T02:48:04.023Z,991.93
2017-01-14T02:49:03.970Z,991.92
2017-01-14T02:50:03.916Z,991.94
2017-01-14T02:51:03.902Z,991.93
2017-01-14T02:52:03.775Z,991.9
2017-01-14T02:53:03.813Z,991.93
2017-01-14T02:54:03.651Z,991.94
2017-01-14T02:55:03.589Z,991.97
2017-01-14T02:56:03.527Z,991.96
2017-01-14T02:57:03.466Z,991.99
2017-01-14T02:58:03.402Z,991.97
2017-01-14T02:59:03.341Z,991.96
2017-01-14T03:00:03.279Z,991.98
2017-01-14T03:01:03.216Z,991.94
2017-01-14T03:02:03.155Z,991.99
2017-01-14T03:03:03.093Z,991.99
2017-01-14T03:04:03.031Z,991.98
2017-01-14T03:05:02.969Z,991.92
2017-01-14T03:06:02.906Z,991.92
2017-01-14T03:07:02.845Z,991.93
2017-01-14T03:08:02.782Z,991.86
2017-01-14T03:09:02.720Z,991.86
2017-01-14T03:10:02.659Z,991.88
2017-01-14T03:11:02.597Z,991.82
2017-01-14T03:12:02.536Z,991.86
2017-01-14T03:13:02.473Z,991.82
2017-01-14T03:14:02.411Z,991.79
2017-01-14T03:15:02.350Z,991.83
2017-01-14T03:16:02.287Z,991.82
2017-01-14T03:17:02.225Z,991.77
2017-01-14T03:18:02.164Z,991.76
2017-01-14T03:19:02.102Z,991.78
2017-01-14T03:20:02.040Z,991.77
2017-01-14T03:21:01.980Z,991.72
2017-01-14T03:22:01.917Z,991.73
2017-01-14T03:23:01.855Z,991.74
2017-01-14T03:24:01.793Z,991.72
2017-01-14T03:25:01.732Z,991.71
2017-01-14T03:26:01.669Z,991.7
2017-01-14T03:27:01.608Z,991.73
2017-01-14T03:28:01.546Z,991.74
2017-01-14T03:29:01.484Z,991.71
2017-01-14T03:30:01.422Z,991.74
2017-01-14T03:31:01.360Z,991.73
2017-01-14T03:32:01.298Z,991.69
2017-01-14T03:33:01.237Z,991.72
2017-01-14T03:34:01.175Z,991.68
2017-01-14T03:35:01.113Z,991.71
2017-01-14T03:36:01.052Z,991.7
2017-01-14T03:37:00.990Z,991.68
2017-01-14T03:38:00.929Z,991.68
2017-01-14T03:39:00.866Z,991.65
2017-01-14T03:40:00.819Z,991.68
2017-01-14T03:41:00.742Z,991.69
2017-01-14T03:42:00.682Z,991.7
2017-01-14T03:43:00.619Z,991.68
2017-01-14T03:44:00.560Z,991.71
2017-01-14T03:45:00.495Z,991.64
2017-01-14T03:46:00.434Z,991.64
2017-01-14T03:47:00.372Z,991.63
2017-01-14T03:48:00.311Z,991.65
2017-01-14T03:49:00.248Z,991.6
2017-01-14T03:50:00.187Z,991.61
2017-01-14T03:51:00.125Z,991.56
2017-01-14T03:52:00.062Z,991.58
2017-01-14T03:53:00.002Z,991.56
2017-01-14T03:53:59.940Z,991.53
2017-01-14T03:54:59.879Z,991.54
2017-01-14T03:55:59.815Z,991.46
2017-01-14T03:56:59.754Z,991.46
2017-01-14T03:57:59.692Z,991.47
2017-01-14T03:58:59.630Z,991.43
2017-01-14T03:59:59.568Z,991.45
2017-01-14T04:00:59.506Z,991.44
2017-01-14T04:01:59.447Z,991.41
2017-01-14T04:02:59.382Z,991.45
2017-01-14T04:03:59.320Z,991.46
2017-01-14T04:04:59.260Z,991.45
2017-01-14T04:05:59.198Z,991.49
2017-01-14T04:06:59.136Z,991.48
2017-01-14T04:07:59.075Z,991.54
2017-01-14T04:08:59.012Z,991.55
2017-01-14T04:09:58.950Z,991.53
2017-01-14T04:10:58.889Z,991.54
2017-01-14T04:11:58.828Z,991.55
2017-01-14T04:12:58.766Z,991.6
2017-01-14T04:13:58.703Z,991.6
2017-01-14T04:14:58.642Z,991.64
2017-01-14T04:15:58.580Z,991.63
2017-01-14T04:16:58.519Z,991.64
2017-01-14T04:17:58.458Z,991.63
2017-01-14T04:18:58.394Z,991.67
2017-01-14T04:19:58.333Z,991.69
2017-01-14T04:20:58.270Z,991.72
2017-01-14T04:21:58.209Z,991.7
2017-01-14T04:22:58.147Z,991.71
2017-01-14T04:23:58.085Z,991.74
2017-01-14T04:24:58.022Z,991.75
2017-01-14T04:25:57.962Z,991.78
2017-01-14T04:26:57.900Z,991.81
2017-01-14T04:27:57.838Z,991.79
2017-01-14T04:28:57.775Z,991.81
2017-01-14T04:29:57.714Z,991.78
2017-01-14T04:30:57.652Z,991.82
2017-01-14T04:31:57.589Z,991.8
2017-01-14T04:32:57.527Z,991.79
2017-01-14T04:33:57.467Z,991.79
2017-01-14T04:34:57.404Z,991.77
2017-01-14T04:35:57.342Z,991.8
2017-01-14T04:36:57.281Z,991.8
2017-01-14T04:37:57.219Z,991.85
2017-01-14T04:38:57.158Z,991.87
2017-01-14T04:39:57.095Z,991.87
2017-01-14T04:40:57.033Z,991.83
2017-01-14T04:41:56.971Z,991.83
2017-01-14T04:42:56.909Z,991.86
2017-01-14T04:43:56.848Z,991.82
2017-01-14T04:44:56.785Z,991.89
2017-01-14T04:45:56.725Z,991.86
2017-01-14T04:46:56.664Z,991.87
2017-01-14T04:47:56.600Z,991.93
2017-01-14T04:48:56.538Z,991.9
2017-01-14T04:49:56.477Z,991.87
2017-01-14T04:50:56.414Z,991.91
2017-01-14T04:51:56.353Z,991.89
2017-01-14T04:52:56.290Z,991.88
2017-01-14T04:53:56.229Z,991.91
2017-01-14T04:54:56.167Z,991.84
2017-01-14T04:55:56.105Z,991.83
2017-01-14T04:56:56.044Z,991.81
2017-01-14T04:57:55.981Z,991.83
2017-01-14T04:58:55.919Z,991.82
2017-01-14T04:59:55.858Z,991.84
2017-01-14T05:00:55.796Z,991.83
2017-01-14T05:01:55.734Z,991.83
2017-01-14T05:02:55.672Z,991.79
2017-01-14T05:03:55.611Z,991.83
2017-01-14T05:04:55.548Z,991.8
2017-01-14T05:05:55.487Z,991.79
2017-01-14T05:06:55.425Z,991.8
2017-01-14T05:07:55.363Z,991.78
2017-01-14T05:08:55.302Z,991.79
2017-01-14T05:09:55.239Z,991.79
2017-01-14T05:10:55.177Z,991.8
2017-01-14T05:11:55.115Z,991.86
2017-01-14T05:12:55.054Z,991.87
2017-01-14T05:13:54.992Z,991.85
2017-01-14T05:14:54.932Z,991.87
2017-01-14T05:15:54.868Z,991.91
2017-01-14T05:16:54.805Z,991.92
2017-01-14T05:17:54.744Z,992.48
2017-01-14T05:18:54.682Z,992.26
2017-01-14T05:19:54.620Z,992.27
2017-01-14T05:20:54.558Z,991.92
2017-01-14T05:21:54.497Z,991.94
2017-01-14T05:22:54.435Z,991.91
2017-01-14T05:23:54.373Z,991.9
2017-01-14T05:24:54.311Z,991.92
2017-01-14T05:25:54.249Z,991.9
2017-01-14T05:26:54.187Z,991.99
2017-01-14T05:27:54.125Z,991.99
2017-01-14T05:28:54.063Z,991.99
2017-01-14T05:29:54.002Z,992.09
2017-01-14T05:30:53.938Z,992.08
2017-01-14T05:31:53.877Z,992.1
2017-01-14T05:32:53.816Z,992.15
2017-01-14T05:33:53.755Z,992.16
2017-01-14T05:34:53.691Z,992.15
2017-01-14T05:35:53.629Z,992.14
2017-01-14T05:36:53.569Z,992.15
2017-01-14T05:37:53.505Z,992.14
2017-01-14T05:38:53.443Z,992.19
2017-01-14T05:39:53.382Z,992.16
2017-01-14T05:40:53.324Z,992.22
2017-01-14T05:41:53.258Z,992.22
2017-01-14T05:42:53.197Z,992.32
2017-01-14T05:43:53.135Z,992.35
2017-01-14T05:44:53.074Z,992.38
2017-01-14T05:45:53.011Z,992.43
2017-01-14T05:46:52.949Z,992.41
2017-01-14T05:47:52.888Z,992.44
2017-01-14T05:48:52.825Z,992.45
2017-01-14T05:49:52.764Z,992.47
2017-01-14T05:50:52.702Z,992.48
2017-01-14T05:51:52.640Z,992.5
2017-01-14T05:52:52.577Z,992.54
2017-01-14T05:53:52.517Z,992.54
2017-01-14T05:54:52.454Z,992.57
2017-01-14T05:55:52.391Z,992.63
2017-01-14T05:56:52.330Z,992.63
2017-01-14T05:57:52.268Z,992.65
2017-01-14T05:58:52.206Z,992.66
2017-01-14T05:59:52.143Z,992.7
2017-01-14T06:00:52.084Z,992.68
2017-01-14T06:01:52.020Z,992.74
2017-01-14T06:02:51.958Z,992.78
2017-01-14T06:03:51.895Z,992.81
2017-01-14T06:04:51.833Z,992.87
2017-01-14T06:05:51.772Z,992.81
2017-01-14T06:06:51.709Z,992.83
2017-01-14T06:07:51.648Z,992.88
2017-01-14T06:08:51.586Z,992.87
2017-01-14T06:09:51.524Z,992.9
2017-01-14T06:10:51.462Z,992.96
2017-01-14T06:11:51.400Z,992.94
2017-01-14T06:12:51.338Z,992.98
2017-01-14T06:13:51.276Z,992.98
2017-01-14T06:14:51.213Z,992.99
2017-01-14T06:15:51.152Z,993.06
2017-01-14T06:16:51.090Z,993.04
2017-01-14T06:17:51.027Z,993.02
2017-01-14T06:18:50.965Z,993.04
2017-01-14T06:19:50.903Z,993.05
2017-01-14T06:20:50.841Z,993.07
2017-01-14T06:21:50.779Z,993.07
2017-01-14T06:22:50.717Z,993.09
2017-01-14T06:23:50.655Z,993.05
2017-01-14T06:24:50.593Z,993.05
2017-01-14T06:25:50.531Z,993.06
2017-01-14T06:26:50.469Z,993.04
2017-01-14T06:27:50.407Z,993.05
2017-01-14T06:28:50.344Z,993.06
2017-01-14T06:29:50.282Z,993.03
2017-01-14T06:30:50.222Z,993.08
2017-01-14T06:31:50.160Z,993.07
2017-01-14T06:32:50.096Z,993.13
2017-01-14T06:33:50.034Z,993.16
2017-01-14T06:34:49.972Z,993.16
2017-01-14T06:35:49.911Z,993.23
2017-01-14T06:36:49.847Z,993.22
2017-01-14T06:37:49.786Z,993.25
2017-01-14T06:38:49.726Z,993.22
2017-01-14T06:39:49.661Z,993.29
2017-01-14T06:40:49.599Z,993.27
2017-01-14T06:41:49.539Z,993.33
2017-01-14T06:42:49.476Z,993.29
2017-01-14T06:43:49.413Z,993.3
2017-01-14T06:44:49.351Z,993.33
2017-01-14T06:45:49.289Z,993.38
2017-01-14T06:46:49.228Z,993.4
2017-01-14T06:47:49.165Z,993.42
2017-01-14T06:48:49.104Z,993.47
2017-01-14T06:49:49.041Z,993.49
2017-01-14T06:50:48.978Z,993.51
2017-01-14T06:51:48.917Z,993.57
2017-01-14T06:52:48.855Z,993.56
2017-01-14T06:53:48.794Z,993.6
2017-01-14T06:54:48.732Z,993.66
2017-01-14T06:55:48.668Z,993.68
2017-01-14T06:56:48.607Z,993.71
2017-01-14T06:57:48.545Z,993.73
2017-01-14T06:58:48.483Z,993.73
2017-01-14T06:59:48.420Z,993.73
2017-01-14T07:00:48.588Z,993.79
2017-01-14T07:01:48.295Z,993.8
2017-01-14T07:02:48.233Z,993.84
2017-01-14T07:03:48.172Z,993.83
2017-01-14T07:04:48.110Z,993.88
2017-01-14T07:05:48.046Z,993.88
2017-01-14T07:06:47.985Z,993.92
2017-01-14T07:07:47.924Z,993.93
2017-01-14T07:08:47.863Z,993.95
2017-01-14T07:09:47.799Z,993.97
2017-01-14T07:10:47.738Z,994
2017-01-14T07:11:47.675Z,993.99
2017-01-14T07:12:47.612Z,994.03
2017-01-14T07:13:47.753Z,994.06
2017-01-14T07:14:47.488Z,994.03
2017-01-14T07:15:47.427Z,994.03
2017-01-14T07:16:47.364Z,994.06
2017-01-14T07:17:47.303Z,994.05
2017-01-14T07:18:47.240Z,994.06
2017-01-14T07:19:47.179Z,994.09
2017-01-14T07:20:47.117Z,994.08
2017-01-14T07:21:47.060Z,994.13
2017-01-14T07:22:46.994Z,994.17
2017-01-14T07:23:46.931Z,994.17
2017-01-14T07:24:46.870Z,994.18
2017-01-14T07:25:46.808Z,994.19
2017-01-14T07:26:46.747Z,994.21
2017-01-14T07:27:46.684Z,994.25
2017-01-14T07:28:46.622Z,994.25
2017-01-14T07:29:46.561Z,994.27
2017-01-14T07:30:46.499Z,994.29
2017-01-14T07:31:46.438Z,994.27
2017-01-14T07:32:46.376Z,994.3
2017-01-14T07:33:46.314Z,994.33
2017-01-14T07:34:46.252Z,994.32
2017-01-14T07:35:46.189Z,994.35
2017-01-14T07:36:46.128Z,994.35
2017-01-14T07:37:46.067Z,994.39
2017-01-14T07:38:46.005Z,994.41
2017-01-14T07:39:45.944Z,994.45
2017-01-14T07:40:45.883Z,994.48
2017-01-14T07:41:45.819Z,994.51
2017-01-14T07:42:45.758Z,994.57
2017-01-14T07:43:45.697Z,994.62
2017-01-14T07:44:45.635Z,994.62
2017-01-14T07:45:45.572Z,994.66
2017-01-14T07:46:45.511Z,994.73
2017-01-14T07:47:45.450Z,994.71
2017-01-14T07:48:45.388Z,994.76
2017-01-14T07:49:45.326Z,994.81
2017-01-14T07:50:45.265Z,994.85
2017-01-14T07:51:45.203Z,994.87
2017-01-14T07:52:45.142Z,994.9
2017-01-14T07:53:45.079Z,994.9
2017-01-14T07:54:45.018Z,994.93
2017-01-14T07:55:44.956Z,994.95
2017-01-14T07:56:44.894Z,994.95
2017-01-14T07:57:44.832Z,994.98
2017-01-14T07:58:44.771Z,995.02
2017-01-14T07:59:44.709Z,995.09
2017-01-14T08:00:44.647Z,995.08
2017-01-14T08:01:44.587Z,995.11
2017-01-14T08:02:44.524Z,995.13
2017-01-14T08:03:44.461Z,995.17
2017-01-14T08:04:44.400Z,995.19
2017-01-14T08:05:44.339Z,995.22
2017-01-14T08:06:44.277Z,995.24
2017-01-14T08:07:44.216Z,995.24
2017-01-14T08:08:44.154Z,995.26
2017-01-14T08:09:44.091Z,995.27
2017-01-14T08:10:44.031Z,995.26
2017-01-14T08:11:43.968Z,995.32
2017-01-14T08:12:43.908Z,995.35
2017-01-14T08:13:43.846Z,995.32
2017-01-14T08:14:43.782Z,995.36
2017-01-14T08:15:43.722Z,995.35
2017-01-14T08:16:43.660Z,995.41
2017-01-14T08:17:43.600Z,995.44
2017-01-14T08:18:43.535Z,995.49
2017-01-14T08:19:43.474Z,995.48
2017-01-14T08:20:43.416Z,995.51
2017-01-14T08:21:43.351Z,995.51
2017-01-14T08:22:43.289Z,995.57
2017-01-14T08:23:43.240Z,995.53
2017-01-14T08:24:43.165Z,995.59
2017-01-14T08:25:43.103Z,995.58
2017-01-14T08:26:43.042Z,995.6
2017-01-14T08:27:42.980Z,995.68
2017-01-14T08:28:42.920Z,995.63
2017-01-14T08:29:42.856Z,995.64
2017-01-14T08:30:42.797Z,995.7
2017-01-14T08:31:42.733Z,995.7
2017-01-14T08:32:42.672Z,995.7
2017-01-14T08:33:42.610Z,995.72
2017-01-14T08:34:42.548Z,995.7
2017-01-14T08:35:42.486Z,995.77
2017-01-14T08:36:42.424Z,995.77
2017-01-14T08:37:42.362Z,995.79
2017-01-14T08:38:42.301Z,995.85
2017-01-14T08:39:42.240Z,995.83
2017-01-14T08:40:42.177Z,995.86
2017-01-14T08:41:42.115Z,995.87
2017-01-14T08:42:42.055Z,995.92
2017-01-14T08:43:41.992Z,995.95
2017-01-14T08:44:41.930Z,995.99
2017-01-14T08:45:41.869Z,996.04
2017-01-14T08:46:41.807Z,996.02
2017-01-14T08:47:41.744Z,996.05
2017-01-14T08:48:41.682Z,996.12
2017-01-14T08:49:41.621Z,996.1
2017-01-14T08:50:41.560Z,996.15
2017-01-14T08:51:41.497Z,996.16
2017-01-14T08:52:41.435Z,996.23
2017-01-14T08:53:41.374Z,996.24
2017-01-14T08:54:41.312Z,996.25
2017-01-14T08:55:41.251Z,996.31
2017-01-14T08:56:41.190Z,996.34
2017-01-14T08:57:41.128Z,996.34
2017-01-14T08:58:41.065Z,996.33
2017-01-14T08:59:41.003Z,996.36
2017-01-14T09:00:40.942Z,996.36
2017-01-14T09:01:40.880Z,996.4
2017-01-14T09:02:40.818Z,996.4
2017-01-14T09:03:40.756Z,996.38
2017-01-14T09:04:40.695Z,996.39
2017-01-14T09:05:40.631Z,996.48
2017-01-14T09:06:40.570Z,996.44
2017-01-14T09:07:40.508Z,996.48
2017-01-14T09:08:40.446Z,996.51
2017-01-14T09:09:40.384Z,996.49
2017-01-14T09:10:40.322Z,996.53
2017-01-14T09:11:40.261Z,996.55
2017-01-14T09:12:40.199Z,996.57
2017-01-14T09:13:40.137Z,996.59
2017-01-14T09:14:40.076Z,996.63
2017-01-14T09:15:40.012Z,996.6
2017-01-14T09:16:39.949Z,996.66
2017-01-14T09:17:39.888Z,996.71
2017-01-14T09:18:39.826Z,996.77
2017-01-14T09:19:39.764Z,996.76
2017-01-14T09:20:39.701Z,996.82
2017-01-14T09:21:39.648Z,996.79
2017-01-14T09:22:39.581Z,996.86
2017-01-14T09:23:39.516Z,996.84
2017-01-14T09:24:39.453Z,996.83
2017-01-14T09:25:39.397Z,996.85
2017-01-14T09:26:39.331Z,996.87
2017-01-14T09:27:39.270Z,996.88
2017-01-14T09:28:39.206Z,996.91
2017-01-14T09:29:39.145Z,996.96
2017-01-14T09:30:39.082Z,996.99
2017-01-14T09:31:39.020Z,997.01
2017-01-14T09:32:38.957Z,997.08
2017-01-14T09:33:38.898Z,997.11
2017-01-14T09:34:38.834Z,997.12
2017-01-14T09:35:38.772Z,997.13
2017-01-14T09:36:38.709Z,997.14
2017-01-14T09:37:38.648Z,997.21
2017-01-14T09:38:38.585Z,997.19
2017-01-14T09:39:38.525Z,997.2
2017-01-14T09:40:38.462Z,997.24
2017-01-14T09:41:38.401Z,997.26
2017-01-14T09:42:38.337Z,997.23
2017-01-14T09:43:38.275Z,997.25
2017-01-14T09:44:38.213Z,997.24
2017-01-14T09:45:38.152Z,997.27
2017-01-14T09:46:38.093Z,997.26
2017-01-14T09:47:38.028Z,997.31
2017-01-14T09:48:37.972Z,997.34
2017-01-14T09:49:37.903Z,997.37
2017-01-14T09:50:37.842Z,997.34
2017-01-14T09:51:37.781Z,997.4
2017-01-14T09:52:37.718Z,997.4
2017-01-14T09:53:37.657Z,997.44
2017-01-14T09:54:37.594Z,997.42
2017-01-14T09:55:37.532Z,997.43
2017-01-14T09:56:37.471Z,997.45
2017-01-14T09:57:37.408Z,997.51
2017-01-14T09:58:37.346Z,997.49
2017-01-14T09:59:37.284Z,997.49
2017-01-14T10:00:37.222Z,997.49
2017-01-14T10:01:37.160Z,997.51
2017-01-14T10:02:37.098Z,997.49
2017-01-14T10:03:37.036Z,997.45
2017-01-14T10:04:36.974Z,997.48
2017-01-14T10:05:36.912Z,997.43
2017-01-14T10:06:36.851Z,997.49
2017-01-14T10:07:36.788Z,997.48
2017-01-14T10:08:36.726Z,997.49
2017-01-14T10:09:36.664Z,997.53
2017-01-14T10:10:36.603Z,997.56
2017-01-14T10:11:36.540Z,997.56
2017-01-14T10:12:36.478Z,997.59
2017-01-14T10:13:36.417Z,997.61
2017-01-14T10:14:36.354Z,997.62
2017-01-14T10:15:36.292Z,997.64
2017-01-14T10:16:36.230Z,997.67
2017-01-14T10:17:36.171Z,997.66
2017-01-14T10:18:36.106Z,997.68
2017-01-14T10:19:36.045Z,997.7
2017-01-14T10:20:35.982Z,997.67
2017-01-14T10:21:35.920Z,997.65
2017-01-14T10:22:35.857Z,997.68
2017-01-14T10:23:35.795Z,997.67
2017-01-14T10:24:35.734Z,997.65
2017-01-14T10:25:35.673Z,997.72
2017-01-14T10:26:35.609Z,997.72
2017-01-14T10:27:35.549Z,997.76
2017-01-14T10:28:35.485Z,997.73
2017-01-14T10:29:35.424Z,997.77
2017-01-14T10:30:35.362Z,997.8
2017-01-14T10:31:35.300Z,997.81
2017-01-14T10:32:35.239Z,997.79
2017-01-14T10:33:35.176Z,997.85
2017-01-14T10:34:35.114Z,997.87
2017-01-14T10:35:35.053Z,997.91
2017-01-14T10:36:34.991Z,997.97
2017-01-14T10:37:34.929Z,997.97
2017-01-14T10:38:34.865Z,997.94
2017-01-14T10:39:34.805Z,997.97
2017-01-14T10:40:34.741Z,997.97
2017-01-14T10:41:34.679Z,998.01
2017-01-14T10:42:34.618Z,997.98
2017-01-14T10:43:34.555Z,998
2017-01-14T10:44:34.493Z,998.02
2017-01-14T10:45:34.431Z,998.04
2017-01-14T10:46:34.370Z,998.07
2017-01-14T10:47:34.308Z,998.02
2017-01-14T10:48:34.245Z,998.05
2017-01-14T10:49:34.184Z,998
2017-01-14T10:50:34.121Z,998.02
2017-01-14T10:51:34.058Z,997.98
2017-01-14T10:52:33.996Z,998
2017-01-14T10:53:33.936Z,997.94
2017-01-14T10:54:33.873Z,997.97
2017-01-14T10:55:33.810Z,998.01
2017-01-14T10:56:33.748Z,998
2017-01-14T10:57:33.687Z,998
2017-01-14T10:58:33.624Z,998.01
2017-01-14T10:59:33.561Z,998.01
2017-01-14T11:00:33.500Z,998.06
2017-01-14T11:01:33.438Z,998.01
2017-01-14T11:02:33.376Z,998
2017-01-14T11:03:33.314Z,998
2017-01-14T11:04:33.252Z,998.08
2017-01-14T11:05:33.190Z,998.04
2017-01-14T11:06:33.127Z,998.09
2017-01-14T11:07:33.065Z,998.11
2017-01-14T11:08:33.004Z,998.11
2017-01-14T11:09:32.943Z,998.13
2017-01-14T11:10:32.879Z,998.14
2017-01-14T11:11:32.816Z,998.15
2017-01-14T11:12:32.754Z,998.18
2017-01-14T11:13:32.692Z,998.2
2017-01-14T11:14:32.630Z,998.21
2017-01-14T11:15:32.567Z,998.24
2017-01-14T11:16:32.506Z,998.28
2017-01-14T11:17:32.444Z,998.31
2017-01-14T11:18:32.382Z,998.31
2017-01-14T11:19:32.319Z,998.31
2017-01-14T11:20:32.258Z,998.3
2017-01-14T11:21:32.194Z,998.3
2017-01-14T11:22:32.133Z,998.32
2017-01-14T11:23:32.071Z,998.35
2017-01-14T11:24:32.008Z,998.34
2017-01-14T11:25:31.948Z,998.27
2017-01-14T11:26:31.885Z,998.32
2017-01-14T11:27:31.824Z,998.32
2017-01-14T11:28:31.760Z,998.33
2017-01-14T11:29:31.699Z,998.31
2017-01-14T11:30:31.636Z,998.31
2017-01-14T11:31:31.577Z,998.32
2017-01-14T11:32:31.513Z,998.34
2017-01-14T11:33:31.450Z,998.34
2017-01-14T11:34:31.388Z,998.37
2017-01-14T11:35:31.327Z,998.36
2017-01-14T11:36:31.263Z,998.39
2017-01-14T11:37:31.203Z,998.43
2017-01-14T11:38:31.142Z,998.46
2017-01-14T11:39:31.079Z,998.45
2017-01-14T11:40:31.018Z,998.46
2017-01-14T11:41:30.956Z,998.49
2017-01-14T11:42:30.895Z,998.51
2017-01-14T11:43:30.831Z,998.51
2017-01-14T11:44:30.770Z,998.48
2017-01-14T11:45:30.709Z,998.46
2017-01-14T11:46:30.646Z,998.41
2017-01-14T11:47:30.585Z,998.44
2017-01-14T11:48:30.523Z,998.42
2017-01-14T11:49:30.461Z,998.42
2017-01-14T11:50:30.399Z,998.41
2017-01-14T11:51:30.337Z,998.41
2017-01-14T11:52:30.276Z,998.41
2017-01-14T11:53:30.214Z,998.42
2017-01-14T11:54:30.152Z,998.44
2017-01-14T11:55:30.090Z,998.46
2017-01-14T11:56:30.029Z,998.47
2017-01-14T11:57:29.966Z,998.44
2017-01-14T11:58:29.906Z,998.46
2017-01-14T11:59:29.844Z,998.46
2017-01-14T12:00:29.782Z,998.43
2017-01-14T12:01:29.719Z,998.48
2017-01-14T12:02:29.659Z,998.45
2017-01-14T12:03:29.598Z,998.46
2017-01-14T12:04:29.535Z,998.44
2017-01-14T12:05:29.475Z,998.49
2017-01-14T12:06:29.413Z,998.51
2017-01-14T12:07:29.351Z,998.55
2017-01-14T12:08:29.287Z,998.59
2017-01-14T12:09:29.227Z,998.6
2017-01-14T12:10:29.166Z,998.61
2017-01-14T12:11:29.104Z,998.61
2017-01-14T12:12:29.042Z,998.61
2017-01-14T12:13:28.980Z,998.64
2017-01-14T12:14:28.918Z,998.62
2017-01-14T12:15:28.857Z,998.66
2017-01-14T12:16:28.795Z,998.62
2017-01-14T12:17:28.733Z,998.64
2017-01-14T12:18:28.673Z,998.67
2017-01-14T12:19:28.609Z,998.68
2017-01-14T12:20:28.547Z,998.67
2017-01-14T12:21:28.486Z,998.68
2017-01-14T12:22:28.425Z,998.7
2017-01-14T12:23:28.362Z,998.69
2017-01-14T12:24:28.301Z,998.7
2017-01-14T12:25:28.242Z,998.72
2017-01-14T12:26:28.176Z,998.71
2017-01-14T12:27:28.116Z,998.71
2017-01-14T12:28:28.053Z,998.72
2017-01-14T12:29:27.993Z,998.77
2017-01-14T12:30:27.929Z,998.76
2017-01-14T12:31:27.868Z,998.76
2017-01-14T12:32:27.808Z,998.76
2017-01-14T12:33:27.745Z,998.76
2017-01-14T12:34:27.683Z,998.84
2017-01-14T12:35:27.621Z,998.8
2017-01-14T12:36:27.560Z,998.79
2017-01-14T12:37:27.501Z,998.78
2017-01-14T12:38:27.438Z,998.83
2017-01-14T12:39:27.374Z,998.79
2017-01-14T12:40:27.314Z,998.82
2017-01-14T12:41:27.250Z,998.86
2017-01-14T12:42:27.188Z,998.87
2017-01-14T12:43:27.126Z,998.87
2017-01-14T12:44:27.065Z,998.89
2017-01-14T12:45:27.003Z,998.83
2017-01-14T12:46:26.941Z,998.85
2017-01-14T12:47:26.879Z,998.89
2017-01-14T12:48:26.817Z,998.85
2017-01-14T12:49:26.755Z,998.89
2017-01-14T12:50:26.694Z,998.88
2017-01-14T12:51:26.634Z,998.89
2017-01-14T12:52:26.570Z,998.87
2017-01-14T12:53:26.508Z,998.86
2017-01-14T12:54:26.448Z,998.9
2017-01-14T12:55:26.386Z,998.87
2017-01-14T12:56:26.323Z,998.87
2017-01-14T12:57:26.261Z,998.88
2017-01-14T12:58:26.199Z,998.88
2017-01-14T12:59:26.137Z,998.9
2017-01-14T13:00:26.076Z,998.93
2017-01-14T13:01:26.014Z,998.96
2017-01-14T13:02:25.953Z,998.96
2017-01-14T13:03:25.892Z,998.96
2017-01-14T13:04:25.828Z,998.96
2017-01-14T13:05:25.766Z,998.94
2017-01-14T13:06:25.709Z,999
2017-01-14T13:07:25.642Z,998.98
2017-01-14T13:08:25.581Z,998.99
2017-01-14T13:09:25.519Z,998.97
2017-01-14T13:10:25.456Z,998.99
2017-01-14T13:11:25.395Z,999
2017-01-14T13:12:25.334Z,999.01
2017-01-14T13:13:25.273Z,998.99
2017-01-14T13:14:25.210Z,999
2017-01-14T13:15:25.147Z,998.99
2017-01-14T13:16:25.086Z,999.01
2017-01-14T13:17:25.024Z,999.03
2017-01-14T13:18:24.962Z,999.08
2017-01-14T13:19:24.900Z,999.11
2017-01-14T13:20:24.839Z,999.07
2017-01-14T13:21:24.776Z,999.07
2017-01-14T13:22:24.716Z,999.12
2017-01-14T13:23:24.654Z,999.11
2017-01-14T13:24:24.591Z,999.12
2017-01-14T13:25:24.528Z,999.13
2017-01-14T13:26:24.466Z,999.14
2017-01-14T13:27:24.405Z,999.18
2017-01-14T13:28:24.343Z,999.16
2017-01-14T13:29:24.281Z,999.19
2017-01-14T13:30:24.221Z,999.2
2017-01-14T13:31:24.159Z,999.19